RYR363C LEMI-EGHH
Flight info
| Callsign | RYR363C |
|---|---|
| Flight time | 2h 10m |
| Altitude | 40000 |
| Route | ALT N851 MITOS N608 COMPI Y90 USKAR N863 GIROM DCT GONUP DCT MANAK DCT EPAPU UM184 EKRAS UT507 REVTU UY110 ORIST Y110 THRED |
| Aircraft | B738/M-SDE2E3FGHIRWXY/LB1 |
Departure
| Time | 2026-04-25 22:51 |
|---|---|
| Airport | Region of Murcia International Airport (LEMI) |
Arrival
| Time | 2026-04-26 01:01 |
|---|---|
| Airport | Bournemouth Airport (EGHH) |
| Time | Latitude | Longitude | Altitude | Speed | Heading |
|---|---|---|---|---|---|
| 2026-04-25 22:23 | 37.80341 | -1.13131 | 646 ft | 0 kts | 315° |
| 2026-04-25 22:43 | 37.80329 | -1.13115 | 647 ft | 4 kts | 307° |
| 2026-04-25 22:43 | 37.80316 | -1.13086 | 646 ft | 4 kts | 288° |
| 2026-04-25 22:43 | 37.80311 | -1.13054 | 648 ft | 4 kts | 262° |
| 2026-04-25 22:44 | 37.80319 | -1.13028 | 646 ft | 1 kts | 225° |
| 2026-04-25 22:44 | 37.80319 | -1.13027 | 646 ft | 0 kts | 225° |
| 2026-04-25 22:47 | 37.80286 | -1.13069 | 647 ft | 13 kts | 225° |
| 2026-04-25 22:48 | 37.80216 | -1.13152 | 647 ft | 14 kts | 207° |
| 2026-04-25 22:48 | 37.80136 | -1.13106 | 646 ft | 13 kts | 135° |
| 2026-04-25 22:48 | 37.80057 | -1.13112 | 648 ft | 13 kts | 224° |
| 2026-04-25 22:48 | 37.79986 | -1.13204 | 647 ft | 16 kts | 225° |
| 2026-04-25 22:49 | 37.79896 | -1.13319 | 651 ft | 20 kts | 225° |
| 2026-04-25 22:49 | 37.79784 | -1.13464 | 651 ft | 26 kts | 225° |
| 2026-04-25 22:49 | 37.79662 | -1.13621 | 648 ft | 24 kts | 225° |
| 2026-04-25 22:49 | 37.79561 | -1.13750 | 648 ft | 13 kts | 225° |
| 2026-04-25 22:50 | 37.79491 | -1.13772 | 646 ft | 12 kts | 148° |
| 2026-04-25 22:50 | 37.79421 | -1.13689 | 645 ft | 17 kts | 126° |
| 2026-04-25 22:50 | 37.79443 | -1.13592 | 643 ft | 19 kts | 46° |
| 2026-04-25 22:50 | 37.79695 | -1.13267 | 647 ft | 85 kts | 45° |
| 2026-04-25 22:51 | 37.80257 | -1.12543 | 644 ft | 142 kts | 46° |
| 2026-04-25 22:51 | 37.81023 | -1.11556 | 1006 ft | 158 kts | 45° |
| 2026-04-25 22:51 | 37.81806 | -1.10563 | 1656 ft | 163 kts | 44° |
| 2026-04-25 22:51 | 37.82626 | -1.09574 | 2273 ft | 168 kts | 44° |
| 2026-04-25 22:52 | 37.83552 | -1.08474 | 2519 ft | 195 kts | 44° |
| 2026-04-25 22:52 | 37.84597 | -1.07237 | 2707 ft | 216 kts | 44° |
| 2026-04-25 22:52 | 37.85749 | -1.05875 | 2881 ft | 239 kts | 44° |
| 2026-04-25 22:52 | 37.86586 | -1.04883 | 3181 ft | 247 kts | 44° |
| 2026-04-25 22:53 | 37.88266 | -1.02893 | 4099 ft | 252 kts | 44° |
| 2026-04-25 22:53 | 37.89563 | -1.01358 | 4779 ft | 257 kts | 44° |
| 2026-04-25 22:53 | 37.90878 | -0.99801 | 5473 ft | 260 kts | 44° |
| 2026-04-25 22:53 | 37.92211 | -0.98227 | 6173 ft | 264 kts | 45° |
| 2026-04-25 22:54 | 37.93558 | -0.96626 | 6851 ft | 268 kts | 45° |
| 2026-04-25 22:54 | 37.94918 | -0.95007 | 7621 ft | 269 kts | 45° |
| 2026-04-25 22:54 | 37.96289 | -0.93377 | 8320 ft | 272 kts | 45° |
| 2026-04-25 22:54 | 37.97677 | -0.91726 | 9092 ft | 274 kts | 45° |
| 2026-04-25 22:55 | 37.99072 | -0.90064 | 9885 ft | 277 kts | 45° |
| 2026-04-25 22:55 | 38.00484 | -0.88380 | 10520 ft | 285 kts | 46° |
| 2026-04-25 22:55 | 38.01987 | -0.86583 | 10696 ft | 309 kts | 45° |
| 2026-04-25 22:55 | 38.03596 | -0.84661 | 11090 ft | 323 kts | 45° |
| 2026-04-25 22:56 | 38.05251 | -0.82688 | 11755 ft | 328 kts | 45° |
| 2026-04-25 22:56 | 38.06923 | -0.80695 | 12496 ft | 332 kts | 45° |
| 2026-04-25 22:56 | 38.08613 | -0.78678 | 13248 ft | 335 kts | 45° |
| 2026-04-25 22:56 | 38.10323 | -0.76635 | 14011 ft | 340 kts | 45° |
| 2026-04-25 22:57 | 38.11464 | -0.75270 | 14471 ft | 341 kts | 45° |
| 2026-04-25 22:57 | 38.13203 | -0.73199 | 15206 ft | 344 kts | 45° |
| 2026-04-25 22:57 | 38.14964 | -0.71111 | 15912 ft | 348 kts | 45° |
| 2026-04-25 22:57 | 38.16747 | -0.68999 | 16613 ft | 352 kts | 45° |
| 2026-04-25 22:58 | 38.18548 | -0.66862 | 17311 ft | 356 kts | 45° |
| 2026-04-25 22:58 | 38.20433 | -0.64623 | 17920 ft | 363 kts | 45° |
| 2026-04-25 22:58 | 38.22839 | -0.61763 | 18737 ft | 369 kts | 45° |
| 2026-04-25 22:58 | 38.24718 | -0.59528 | 19373 ft | 371 kts | 44° |
| 2026-04-25 22:59 | 38.25985 | -0.57995 | 19791 ft | 372 kts | 47° |
| 2026-04-25 22:59 | 38.27461 | -0.55302 | 20331 ft | 374 kts | 66° |
| 2026-04-25 22:59 | 38.28459 | -0.52235 | 20934 ft | 377 kts | 69° |
| 2026-04-25 22:59 | 38.29423 | -0.49117 | 21511 ft | 380 kts | 69° |
| 2026-04-25 23:00 | 38.30398 | -0.45965 | 22052 ft | 384 kts | 69° |
| 2026-04-25 23:00 | 38.31392 | -0.42793 | 22596 ft | 388 kts | 69° |
| 2026-04-25 23:00 | 38.32403 | -0.39593 | 23133 ft | 391 kts | 68° |
| 2026-04-25 23:00 | 38.33415 | -0.36409 | 23664 ft | 395 kts | 68° |
| 2026-04-25 23:01 | 38.34451 | -0.33155 | 24130 ft | 398 kts | 68° |
| 2026-04-25 23:01 | 38.35492 | -0.29882 | 24609 ft | 400 kts | 69° |
| 2026-04-25 23:01 | 38.36544 | -0.26598 | 25085 ft | 402 kts | 68° |
| 2026-04-25 23:01 | 38.37635 | -0.23309 | 25537 ft | 404 kts | 68° |
| 2026-04-25 23:02 | 38.38745 | -0.20007 | 25983 ft | 407 kts | 68° |
| 2026-04-25 23:02 | 38.39860 | -0.16686 | 26415 ft | 408 kts | 68° |
| 2026-04-25 23:02 | 38.40976 | -0.13345 | 26836 ft | 411 kts | 68° |
| 2026-04-25 23:02 | 38.42095 | -0.09980 | 27259 ft | 413 kts | 68° |
| 2026-04-25 23:03 | 38.43343 | -0.06673 | 27647 ft | 417 kts | 57° |
| 2026-04-25 23:03 | 38.45334 | -0.03959 | 28016 ft | 424 kts | 38° |
| 2026-04-25 23:03 | 38.47911 | -0.02104 | 28463 ft | 429 kts | 23° |
| 2026-04-25 23:03 | 38.50822 | -0.01201 | 28827 ft | 436 kts | 6° |
| 2026-04-25 23:04 | 38.53869 | -0.01086 | 29219 ft | 439 kts | 2° |
| 2026-04-25 23:04 | 38.56940 | -0.01095 | 29548 ft | 443 kts | 1° |
| 2026-04-25 23:04 | 38.60031 | -0.01137 | 29875 ft | 446 kts | 1° |
| 2026-04-25 23:04 | 38.63144 | -0.01174 | 30209 ft | 448 kts | 2° |
| 2026-04-25 23:05 | 38.66270 | -0.01195 | 30521 ft | 451 kts | 1° |
| 2026-04-25 23:05 | 38.69409 | -0.01199 | 30867 ft | 451 kts | 1° |
| 2026-04-25 23:05 | 38.72551 | -0.01189 | 31167 ft | 452 kts | 2° |
| 2026-04-25 23:05 | 38.75706 | -0.01171 | 31433 ft | 455 kts | 2° |
| 2026-04-25 23:06 | 38.78876 | -0.01149 | 31697 ft | 457 kts | 2° |
| 2026-04-25 23:06 | 38.82052 | -0.01127 | 32046 ft | 456 kts | 1° |
| 2026-04-25 23:06 | 38.85217 | -0.01105 | 32463 ft | 454 kts | 1° |
| 2026-04-25 23:06 | 38.88370 | -0.01084 | 32867 ft | 452 kts | 1° |
| 2026-04-25 23:07 | 38.91513 | -0.01063 | 33256 ft | 451 kts | 1° |
| 2026-04-25 23:07 | 38.94640 | -0.01043 | 33656 ft | 449 kts | 1° |
| 2026-04-25 23:07 | 38.97764 | -0.01023 | 33980 ft | 449 kts | 1° |
| 2026-04-25 23:07 | 39.00888 | -0.01002 | 34277 ft | 449 kts | 1° |
| 2026-04-25 23:08 | 39.04007 | -0.00982 | 34577 ft | 448 kts | 1° |
| 2026-04-25 23:08 | 39.07120 | -0.00962 | 34876 ft | 447 kts | 1° |
| 2026-04-25 23:08 | 39.10227 | -0.00941 | 35145 ft | 447 kts | 1° |
| 2026-04-25 23:08 | 39.13335 | -0.00922 | 35407 ft | 446 kts | 1° |
| 2026-04-25 23:09 | 39.16436 | -0.00900 | 35715 ft | 445 kts | 1° |
| 2026-04-25 23:09 | 39.19524 | -0.00880 | 36006 ft | 444 kts | 1° |
| 2026-04-25 23:09 | 39.22573 | -0.00860 | 36262 ft | 444 kts | 1° |
| 2026-04-25 23:09 | 39.25659 | -0.00841 | 36536 ft | 443 kts | 1° |
| 2026-04-25 23:10 | 39.28740 | -0.00821 | 36801 ft | 442 kts | 1° |
| 2026-04-25 23:10 | 39.31816 | -0.00800 | 37045 ft | 442 kts | 1° |
| 2026-04-25 23:10 | 39.34888 | -0.00651 | 37264 ft | 442 kts | 7° |
| 2026-04-25 23:10 | 39.37891 | 0.00095 | 37568 ft | 439 kts | 15° |
| 2026-04-25 23:11 | 39.40820 | 0.01172 | 37890 ft | 437 kts | 16° |
| 2026-04-25 23:11 | 39.43733 | 0.02291 | 38090 ft | 437 kts | 17° |
| 2026-04-25 23:11 | 39.46650 | 0.03417 | 38211 ft | 438 kts | 16° |
| 2026-04-25 23:11 | 39.49577 | 0.04535 | 38443 ft | 438 kts | 16° |
| 2026-04-25 23:12 | 39.52495 | 0.05636 | 38735 ft | 436 kts | 16° |
| 2026-04-25 23:12 | 39.55412 | 0.06726 | 38878 ft | 437 kts | 15° |
| 2026-04-25 23:12 | 39.58338 | 0.07813 | 38983 ft | 438 kts | 15° |
| 2026-04-25 23:12 | 39.61271 | 0.08900 | 39078 ft | 439 kts | 15° |
| 2026-04-25 23:13 | 39.64209 | 0.09989 | 39201 ft | 440 kts | 15° |
| 2026-04-25 23:13 | 39.67149 | 0.11080 | 39359 ft | 439 kts | 15° |
| 2026-04-25 23:13 | 39.70088 | 0.12173 | 39529 ft | 439 kts | 15° |
| 2026-04-25 23:13 | 39.73022 | 0.13264 | 39643 ft | 440 kts | 15° |
| 2026-04-25 23:14 | 39.75963 | 0.14358 | 39752 ft | 440 kts | 15° |
| 2026-04-25 23:14 | 39.78910 | 0.15456 | 39866 ft | 440 kts | 15° |
| 2026-04-25 23:14 | 39.81851 | 0.16554 | 39999 ft | 440 kts | 15° |
| 2026-04-25 23:14 | 39.84797 | 0.17655 | 40100 ft | 441 kts | 15° |
| 2026-04-25 23:15 | 39.90712 | 0.19867 | 40138 ft | 444 kts | 15° |
| 2026-04-25 23:15 | 39.96600 | 0.22073 | 40142 ft | 443 kts | 15° |
| 2026-04-25 23:16 | 40.02519 | 0.24294 | 40147 ft | 442 kts | 15° |
| 2026-04-25 23:16 | 40.08433 | 0.26513 | 40150 ft | 442 kts | 15° |
| 2026-04-25 23:17 | 40.14335 | 0.28733 | 40156 ft | 441 kts | 15° |
| 2026-04-25 23:17 | 40.20229 | 0.30952 | 40150 ft | 440 kts | 15° |
| 2026-04-25 23:18 | 40.26114 | 0.33174 | 40150 ft | 440 kts | 15° |
| 2026-04-25 23:18 | 40.31987 | 0.35394 | 40149 ft | 439 kts | 15° |
| 2026-04-25 23:19 | 40.37855 | 0.37619 | 40151 ft | 438 kts | 15° |
| 2026-04-25 23:19 | 40.43713 | 0.39849 | 40146 ft | 438 kts | 16° |
| 2026-04-25 23:20 | 40.49573 | 0.42082 | 40150 ft | 438 kts | 15° |
| 2026-04-25 23:20 | 40.55425 | 0.44318 | 40143 ft | 438 kts | 15° |
| 2026-04-25 23:21 | 40.61281 | 0.46556 | 40143 ft | 438 kts | 15° |
| 2026-04-25 23:21 | 40.67134 | 0.48797 | 40145 ft | 438 kts | 15° |
| 2026-04-25 23:22 | 40.72984 | 0.51042 | 40140 ft | 438 kts | 15° |
| 2026-04-25 23:23 | 40.81718 | 0.54401 | 40144 ft | 438 kts | 15° |
| 2026-04-25 23:23 | 40.87576 | 0.56659 | 40147 ft | 439 kts | 15° |
| 2026-04-25 23:24 | 40.93438 | 0.58926 | 40137 ft | 440 kts | 15° |
| 2026-04-25 23:24 | 40.99314 | 0.61200 | 40141 ft | 440 kts | 15° |
| 2026-04-25 23:25 | 41.05194 | 0.63480 | 40144 ft | 440 kts | 15° |
| 2026-04-25 23:25 | 41.11082 | 0.65767 | 40144 ft | 441 kts | 15° |
| 2026-04-25 23:26 | 41.16980 | 0.68063 | 40140 ft | 443 kts | 15° |
| 2026-04-25 23:26 | 41.22894 | 0.70365 | 40146 ft | 443 kts | 15° |
| 2026-04-25 23:27 | 41.28820 | 0.72678 | 40143 ft | 444 kts | 15° |
| 2026-04-25 23:27 | 41.34755 | 0.74999 | 40146 ft | 445 kts | 15° |
| 2026-04-25 23:28 | 41.40705 | 0.77333 | 40146 ft | 446 kts | 15° |
| 2026-04-25 23:28 | 41.46662 | 0.79673 | 40146 ft | 447 kts | 15° |
| 2026-04-25 23:29 | 41.52623 | 0.82019 | 40139 ft | 446 kts | 15° |
| 2026-04-25 23:29 | 41.58574 | 0.84366 | 40141 ft | 446 kts | 15° |
| 2026-04-25 23:30 | 41.64525 | 0.86716 | 40142 ft | 446 kts | 15° |
| 2026-04-25 23:30 | 41.70471 | 0.89069 | 40147 ft | 445 kts | 15° |
| 2026-04-25 23:31 | 41.76412 | 0.91424 | 40146 ft | 444 kts | 15° |
| 2026-04-25 23:31 | 41.82334 | 0.93779 | 40157 ft | 444 kts | 15° |
| 2026-04-25 23:32 | 41.88254 | 0.96135 | 40164 ft | 444 kts | 15° |
| 2026-04-25 23:32 | 41.94172 | 0.98495 | 40163 ft | 443 kts | 15° |
| 2026-04-25 23:33 | 42.00092 | 1.00859 | 40160 ft | 444 kts | 15° |
| 2026-04-25 23:33 | 42.06011 | 1.03230 | 40165 ft | 444 kts | 15° |
| 2026-04-25 23:34 | 42.11892 | 1.05572 | 40173 ft | 443 kts | 12° |
| 2026-04-25 23:34 | 42.17973 | 1.06360 | 40169 ft | 438 kts | 354° |
| 2026-04-25 23:35 | 42.24048 | 1.05630 | 40190 ft | 439 kts | 353° |
| 2026-04-25 23:35 | 42.30137 | 1.04892 | 40194 ft | 440 kts | 353° |
| 2026-04-25 23:36 | 42.36242 | 1.04222 | 40191 ft | 440 kts | 353° |
| 2026-04-25 23:36 | 42.42346 | 1.03566 | 40201 ft | 439 kts | 353° |
| 2026-04-25 23:37 | 42.48435 | 1.02905 | 40208 ft | 438 kts | 353° |
| 2026-04-25 23:37 | 42.54515 | 1.02241 | 40211 ft | 438 kts | 353° |
| 2026-04-25 23:38 | 42.60588 | 1.01576 | 40216 ft | 438 kts | 353° |
| 2026-04-25 23:38 | 42.66658 | 1.00911 | 40211 ft | 438 kts | 353° |
| 2026-04-25 23:39 | 42.72725 | 1.00248 | 40223 ft | 437 kts | 353° |
| 2026-04-25 23:39 | 42.78772 | 0.99414 | 40216 ft | 435 kts | 346° |
| 2026-04-25 23:40 | 42.84633 | 0.97435 | 40234 ft | 433 kts | 343° |
| 2026-04-25 23:40 | 42.90462 | 0.95319 | 40217 ft | 433 kts | 343° |
| 2026-04-25 23:41 | 42.96299 | 0.93251 | 40223 ft | 433 kts | 343° |
| 2026-04-25 23:41 | 43.02141 | 0.91221 | 40232 ft | 433 kts | 344° |
| 2026-04-25 23:42 | 43.07983 | 0.89199 | 40219 ft | 433 kts | 344° |
| 2026-04-25 23:42 | 43.13792 | 0.87182 | 40219 ft | 434 kts | 344° |
| 2026-04-25 23:43 | 43.19644 | 0.85146 | 40221 ft | 434 kts | 344° |
| 2026-04-25 23:43 | 43.25504 | 0.83102 | 40231 ft | 435 kts | 344° |
| 2026-04-25 23:44 | 43.31369 | 0.81052 | 40223 ft | 435 kts | 343° |
| 2026-04-25 23:44 | 43.37247 | 0.78995 | 40219 ft | 436 kts | 343° |
| 2026-04-25 23:45 | 43.43120 | 0.76935 | 40223 ft | 435 kts | 343° |
| 2026-04-25 23:45 | 43.48890 | 0.74460 | 40213 ft | 433 kts | 336° |
| 2026-04-25 23:46 | 43.54420 | 0.71173 | 40216 ft | 433 kts | 334° |
| 2026-04-25 23:46 | 43.59918 | 0.67821 | 40220 ft | 431 kts | 335° |
| 2026-04-25 23:47 | 43.65426 | 0.64516 | 40213 ft | 432 kts | 335° |
| 2026-04-25 23:47 | 43.70942 | 0.61241 | 40221 ft | 431 kts | 335° |
| 2026-04-25 23:48 | 43.76461 | 0.57971 | 40221 ft | 431 kts | 335° |
| 2026-04-25 23:48 | 43.81043 | 0.55252 | 40217 ft | 431 kts | 335° |
| 2026-04-25 23:49 | 43.86551 | 0.51978 | 40213 ft | 431 kts | 335° |
| 2026-04-25 23:49 | 43.92057 | 0.48697 | 40215 ft | 431 kts | 335° |
| 2026-04-25 23:50 | 43.97564 | 0.45408 | 40216 ft | 431 kts | 335° |
| 2026-04-25 23:50 | 44.03071 | 0.42113 | 40219 ft | 431 kts | 335° |
| 2026-04-25 23:51 | 44.08581 | 0.38809 | 40212 ft | 432 kts | 335° |
| 2026-04-25 23:51 | 44.14095 | 0.35495 | 40224 ft | 432 kts | 335° |
| 2026-04-25 23:52 | 44.19609 | 0.32177 | 40210 ft | 432 kts | 335° |
| 2026-04-25 23:52 | 44.25121 | 0.28852 | 40216 ft | 431 kts | 335° |
| 2026-04-25 23:53 | 44.30628 | 0.25523 | 40216 ft | 431 kts | 335° |
| 2026-04-25 23:53 | 44.36134 | 0.22188 | 40220 ft | 431 kts | 335° |
| 2026-04-25 23:54 | 44.41639 | 0.18846 | 40211 ft | 431 kts | 335° |
| 2026-04-25 23:54 | 44.47139 | 0.15500 | 40212 ft | 431 kts | 335° |
| 2026-04-25 23:55 | 44.52637 | 0.12149 | 40215 ft | 431 kts | 335° |
| 2026-04-25 23:55 | 44.58127 | 0.08796 | 40217 ft | 430 kts | 335° |
| 2026-04-25 23:56 | 44.63618 | 0.05436 | 40214 ft | 430 kts | 335° |
| 2026-04-25 23:56 | 44.69071 | 0.02090 | 40214 ft | 430 kts | 335° |
| 2026-04-25 23:57 | 44.74559 | -0.01282 | 40208 ft | 430 kts | 335° |
| 2026-04-25 23:57 | 44.80039 | -0.04653 | 40209 ft | 430 kts | 335° |
| 2026-04-25 23:58 | 44.85516 | -0.08033 | 40211 ft | 430 kts | 335° |
| 2026-04-25 23:58 | 44.90989 | -0.11421 | 40209 ft | 430 kts | 335° |
| 2026-04-25 23:59 | 44.96471 | -0.14819 | 40210 ft | 430 kts | 335° |
| 2026-04-25 23:59 | 45.01952 | -0.18224 | 40217 ft | 431 kts | 335° |
| 2026-04-26 00:00 | 45.07445 | -0.21641 | 40210 ft | 431 kts | 335° |
| 2026-04-26 00:00 | 45.12942 | -0.25069 | 40211 ft | 432 kts | 335° |
| 2026-04-26 00:01 | 45.18441 | -0.28506 | 40210 ft | 432 kts | 335° |
| 2026-04-26 00:01 | 45.23951 | -0.31957 | 40212 ft | 433 kts | 335° |
| 2026-04-26 00:02 | 45.29465 | -0.35417 | 40205 ft | 433 kts | 335° |
| 2026-04-26 00:02 | 45.34978 | -0.38884 | 40203 ft | 433 kts | 335° |
| 2026-04-26 00:03 | 45.40482 | -0.42354 | 40207 ft | 432 kts | 335° |
| 2026-04-26 00:03 | 45.45979 | -0.45826 | 40196 ft | 432 kts | 335° |
| 2026-04-26 00:04 | 45.51469 | -0.49302 | 40191 ft | 432 kts | 334° |
| 2026-04-26 00:04 | 45.56957 | -0.52785 | 40192 ft | 431 kts | 334° |
| 2026-04-26 00:05 | 45.62432 | -0.56266 | 40192 ft | 430 kts | 335° |
| 2026-04-26 00:05 | 45.67861 | -0.59723 | 40188 ft | 429 kts | 335° |
| 2026-04-26 00:06 | 45.73312 | -0.63204 | 40193 ft | 428 kts | 334° |
| 2026-04-26 00:06 | 45.78736 | -0.66674 | 40195 ft | 426 kts | 334° |
| 2026-04-26 00:07 | 45.84150 | -0.70145 | 40192 ft | 426 kts | 334° |
| 2026-04-26 00:07 | 45.89552 | -0.73617 | 40191 ft | 425 kts | 334° |
| 2026-04-26 00:08 | 45.94947 | -0.77091 | 40192 ft | 425 kts | 334° |
| 2026-04-26 00:08 | 46.00334 | -0.80569 | 40199 ft | 424 kts | 334° |
| 2026-04-26 00:09 | 46.05717 | -0.84051 | 40188 ft | 424 kts | 334° |
| 2026-04-26 00:09 | 46.11094 | -0.87535 | 40186 ft | 423 kts | 334° |
| 2026-04-26 00:10 | 46.16464 | -0.91022 | 40186 ft | 423 kts | 334° |
| 2026-04-26 00:10 | 46.21873 | -0.94369 | 40177 ft | 424 kts | 341° |
| 2026-04-26 00:11 | 46.27628 | -0.96257 | 40182 ft | 425 kts | 347° |
| 2026-04-26 00:11 | 46.33375 | -0.97935 | 40187 ft | 424 kts | 347° |
| 2026-04-26 00:12 | 46.39144 | -0.99658 | 40187 ft | 424 kts | 346° |
| 2026-04-26 00:12 | 46.44918 | -1.01421 | 40183 ft | 424 kts | 346° |
| 2026-04-26 00:13 | 46.50698 | -1.03203 | 40186 ft | 425 kts | 346° |
| 2026-04-26 00:13 | 46.56487 | -1.04993 | 40190 ft | 426 kts | 346° |
| 2026-04-26 00:14 | 46.62286 | -1.06788 | 40190 ft | 426 kts | 346° |
| 2026-04-26 00:14 | 46.68095 | -1.08588 | 40183 ft | 427 kts | 346° |
| 2026-04-26 00:15 | 46.73907 | -1.10395 | 40188 ft | 427 kts | 346° |
| 2026-04-26 00:15 | 46.79721 | -1.12205 | 40186 ft | 427 kts | 346° |
| 2026-04-26 00:16 | 46.85534 | -1.14023 | 40184 ft | 427 kts | 346° |
| 2026-04-26 00:16 | 46.91343 | -1.15843 | 40184 ft | 427 kts | 346° |
| 2026-04-26 00:17 | 46.97150 | -1.17666 | 40185 ft | 427 kts | 346° |
| 2026-04-26 00:17 | 47.02917 | -1.19477 | 40185 ft | 427 kts | 346° |
| 2026-04-26 00:18 | 47.08719 | -1.21306 | 40186 ft | 426 kts | 346° |
| 2026-04-26 00:18 | 47.14525 | -1.23139 | 40182 ft | 426 kts | 346° |
| 2026-04-26 00:19 | 47.20317 | -1.24972 | 40187 ft | 425 kts | 346° |
| 2026-04-26 00:19 | 47.26103 | -1.26807 | 40184 ft | 425 kts | 346° |
| 2026-04-26 00:20 | 47.31876 | -1.28642 | 40185 ft | 424 kts | 346° |
| 2026-04-26 00:20 | 47.37637 | -1.30480 | 40182 ft | 423 kts | 346° |
| 2026-04-26 00:21 | 47.43390 | -1.32317 | 40187 ft | 423 kts | 346° |
| 2026-04-26 00:21 | 47.49139 | -1.34157 | 40190 ft | 422 kts | 346° |
| 2026-04-26 00:22 | 47.54885 | -1.36000 | 40193 ft | 422 kts | 346° |
| 2026-04-26 00:22 | 47.60627 | -1.37847 | 40203 ft | 422 kts | 346° |
| 2026-04-26 00:23 | 47.66364 | -1.39694 | 40188 ft | 422 kts | 346° |
| 2026-04-26 00:23 | 47.72128 | -1.41393 | 40186 ft | 424 kts | 353° |
| 2026-04-26 00:24 | 47.77983 | -1.41857 | 40196 ft | 425 kts | 356° |
| 2026-04-26 00:24 | 47.83888 | -1.42192 | 40209 ft | 425 kts | 355° |
| 2026-04-26 00:25 | 47.89803 | -1.42604 | 40203 ft | 426 kts | 355° |
| 2026-04-26 00:25 | 47.95724 | -1.43051 | 40207 ft | 426 kts | 355° |
| 2026-04-26 00:26 | 48.01651 | -1.43500 | 40214 ft | 427 kts | 355° |
| 2026-04-26 00:26 | 48.07589 | -1.43938 | 40211 ft | 427 kts | 355° |
| 2026-04-26 00:27 | 48.13537 | -1.44361 | 40209 ft | 428 kts | 355° |
| 2026-04-26 00:27 | 48.19488 | -1.44785 | 40212 ft | 428 kts | 355° |
| 2026-04-26 00:28 | 48.25445 | -1.45211 | 40207 ft | 429 kts | 355° |
| 2026-04-26 00:28 | 48.31430 | -1.45643 | 39771 ft | 436 kts | 355° |
| 2026-04-26 00:28 | 48.34455 | -1.45862 | 39296 ft | 434 kts | 355° |
| 2026-04-26 00:29 | 48.37472 | -1.46080 | 38748 ft | 433 kts | 355° |
| 2026-04-26 00:29 | 48.40481 | -1.46297 | 38110 ft | 432 kts | 355° |
| 2026-04-26 00:29 | 48.43461 | -1.46511 | 37760 ft | 425 kts | 355° |
| 2026-04-26 00:29 | 48.46406 | -1.46724 | 37313 ft | 421 kts | 355° |
| 2026-04-26 00:30 | 48.49317 | -1.46934 | 36932 ft | 416 kts | 355° |
| 2026-04-26 00:30 | 48.52190 | -1.47142 | 36546 ft | 411 kts | 355° |
| 2026-04-26 00:30 | 48.55034 | -1.47349 | 36171 ft | 407 kts | 355° |
| 2026-04-26 00:30 | 48.57847 | -1.47554 | 35775 ft | 403 kts | 354° |
| 2026-04-26 00:31 | 48.60635 | -1.47758 | 35391 ft | 399 kts | 354° |
| 2026-04-26 00:31 | 48.63392 | -1.47960 | 35010 ft | 395 kts | 354° |
| 2026-04-26 00:31 | 48.66124 | -1.48160 | 34641 ft | 392 kts | 354° |
| 2026-04-26 00:31 | 48.68797 | -1.48356 | 34272 ft | 388 kts | 354° |
| 2026-04-26 00:32 | 48.71487 | -1.48554 | 33854 ft | 385 kts | 354° |
| 2026-04-26 00:32 | 48.74154 | -1.48750 | 33458 ft | 382 kts | 354° |
| 2026-04-26 00:32 | 48.79411 | -1.49138 | 32712 ft | 375 kts | 354° |
| 2026-04-26 00:33 | 48.82007 | -1.49329 | 32353 ft | 372 kts | 354° |
| 2026-04-26 00:33 | 48.84583 | -1.49519 | 31990 ft | 369 kts | 354° |
| 2026-04-26 00:33 | 48.87137 | -1.49709 | 31632 ft | 366 kts | 354° |
| 2026-04-26 00:33 | 48.89674 | -1.49910 | 31282 ft | 363 kts | 352° |
| 2026-04-26 00:34 | 48.92162 | -1.50454 | 30956 ft | 359 kts | 346° |
| 2026-04-26 00:34 | 48.94608 | -1.51223 | 30614 ft | 359 kts | 345° |
| 2026-04-26 00:34 | 48.97026 | -1.52042 | 30271 ft | 355 kts | 345° |
| 2026-04-26 00:34 | 48.99421 | -1.52857 | 29868 ft | 352 kts | 345° |
| 2026-04-26 00:35 | 49.01799 | -1.53660 | 29508 ft | 348 kts | 345° |
| 2026-04-26 00:35 | 49.04158 | -1.54443 | 29136 ft | 345 kts | 345° |
| 2026-04-26 00:35 | 49.06496 | -1.55209 | 28795 ft | 342 kts | 345° |
| 2026-04-26 00:35 | 49.08821 | -1.55966 | 28434 ft | 341 kts | 345° |
| 2026-04-26 00:36 | 49.11140 | -1.56718 | 28075 ft | 341 kts | 345° |
| 2026-04-26 00:36 | 49.13470 | -1.57472 | 27731 ft | 346 kts | 345° |
| 2026-04-26 00:36 | 49.15863 | -1.58248 | 27380 ft | 356 kts | 346° |
| 2026-04-26 00:36 | 49.18302 | -1.59038 | 27000 ft | 358 kts | 346° |
| 2026-04-26 00:37 | 49.20731 | -1.59823 | 26623 ft | 356 kts | 346° |
| 2026-04-26 00:37 | 49.23145 | -1.60605 | 26248 ft | 354 kts | 346° |
| 2026-04-26 00:37 | 49.25511 | -1.61372 | 25894 ft | 351 kts | 346° |
| 2026-04-26 00:37 | 49.27928 | -1.62155 | 25527 ft | 350 kts | 346° |
| 2026-04-26 00:38 | 49.30270 | -1.62915 | 25178 ft | 348 kts | 345° |
| 2026-04-26 00:38 | 49.32630 | -1.63684 | 24818 ft | 346 kts | 345° |
| 2026-04-26 00:38 | 49.34984 | -1.64450 | 24468 ft | 345 kts | 345° |
| 2026-04-26 00:38 | 49.37333 | -1.65215 | 24093 ft | 345 kts | 345° |
| 2026-04-26 00:39 | 49.39673 | -1.65979 | 23724 ft | 344 kts | 345° |
| 2026-04-26 00:39 | 49.41253 | -1.66495 | 23438 ft | 343 kts | 345° |
| 2026-04-26 00:39 | 49.43580 | -1.67256 | 23058 ft | 341 kts | 346° |
| 2026-04-26 00:39 | 49.45888 | -1.68011 | 22692 ft | 338 kts | 346° |
| 2026-04-26 00:40 | 49.48180 | -1.68762 | 22336 ft | 336 kts | 346° |
| 2026-04-26 00:40 | 49.50455 | -1.69508 | 21982 ft | 333 kts | 346° |
| 2026-04-26 00:40 | 49.52713 | -1.70249 | 21647 ft | 331 kts | 346° |
| 2026-04-26 00:40 | 49.54955 | -1.70985 | 21302 ft | 328 kts | 346° |
| 2026-04-26 00:41 | 49.57183 | -1.71718 | 20969 ft | 326 kts | 346° |
| 2026-04-26 00:41 | 49.59396 | -1.72445 | 20627 ft | 324 kts | 346° |
| 2026-04-26 00:41 | 49.61612 | -1.73140 | 20174 ft | 327 kts | 347° |
| 2026-04-26 00:41 | 49.63841 | -1.73798 | 19828 ft | 325 kts | 347° |
| 2026-04-26 00:42 | 49.66061 | -1.74444 | 19473 ft | 324 kts | 347° |
| 2026-04-26 00:42 | 49.68275 | -1.75087 | 19127 ft | 323 kts | 348° |
| 2026-04-26 00:42 | 49.70476 | -1.75729 | 18800 ft | 321 kts | 348° |
| 2026-04-26 00:42 | 49.72670 | -1.76372 | 18457 ft | 320 kts | 348° |
| 2026-04-26 00:43 | 49.74849 | -1.77015 | 18082 ft | 318 kts | 348° |
| 2026-04-26 00:43 | 49.77021 | -1.77659 | 17728 ft | 317 kts | 348° |
| 2026-04-26 00:43 | 49.79177 | -1.78298 | 17384 ft | 315 kts | 348° |
| 2026-04-26 00:43 | 49.81322 | -1.78934 | 17028 ft | 313 kts | 348° |
| 2026-04-26 00:44 | 49.83450 | -1.79565 | 16717 ft | 311 kts | 348° |
| 2026-04-26 00:44 | 49.85566 | -1.80194 | 16392 ft | 309 kts | 348° |
| 2026-04-26 00:44 | 49.87670 | -1.80820 | 16069 ft | 307 kts | 348° |
| 2026-04-26 00:44 | 49.89764 | -1.81443 | 15750 ft | 306 kts | 348° |
| 2026-04-26 00:45 | 49.91848 | -1.82064 | 15418 ft | 305 kts | 348° |
| 2026-04-26 00:45 | 49.93926 | -1.82685 | 15099 ft | 304 kts | 348° |
| 2026-04-26 00:45 | 49.95972 | -1.83294 | 14787 ft | 303 kts | 348° |
| 2026-04-26 00:45 | 49.98040 | -1.83912 | 14447 ft | 303 kts | 348° |
| 2026-04-26 00:46 | 50.00118 | -1.84474 | 14129 ft | 303 kts | 354° |
| 2026-04-26 00:46 | 50.02234 | -1.84420 | 13727 ft | 305 kts | 4° |
| 2026-04-26 00:46 | 50.04341 | -1.84069 | 13380 ft | 304 kts | 6° |
| 2026-04-26 00:46 | 50.06438 | -1.83699 | 13049 ft | 303 kts | 5° |
| 2026-04-26 00:47 | 50.08528 | -1.83372 | 12727 ft | 301 kts | 5° |
| 2026-04-26 00:47 | 50.10612 | -1.83073 | 12410 ft | 300 kts | 5° |
| 2026-04-26 00:47 | 50.12684 | -1.82790 | 12096 ft | 298 kts | 4° |
| 2026-04-26 00:47 | 50.14739 | -1.82410 | 11787 ft | 297 kts | 11° |
| 2026-04-26 00:48 | 50.16735 | -1.81612 | 11489 ft | 295 kts | 15° |
| 2026-04-26 00:48 | 50.18695 | -1.80686 | 11191 ft | 293 kts | 17° |
| 2026-04-26 00:48 | 50.20644 | -1.79749 | 10882 ft | 292 kts | 16° |
| 2026-04-26 00:48 | 50.22583 | -1.78827 | 10576 ft | 291 kts | 16° |
| 2026-04-26 00:49 | 50.24513 | -1.77924 | 10362 ft | 286 kts | 15° |
| 2026-04-26 00:49 | 50.26401 | -1.77052 | 10168 ft | 281 kts | 15° |
| 2026-04-26 00:49 | 50.28274 | -1.76195 | 9851 ft | 280 kts | 15° |
| 2026-04-26 00:49 | 50.30142 | -1.75345 | 9549 ft | 278 kts | 15° |
| 2026-04-26 00:50 | 50.31999 | -1.74503 | 9257 ft | 277 kts | 15° |
| 2026-04-26 00:50 | 50.33846 | -1.73665 | 8960 ft | 276 kts | 15° |
| 2026-04-26 00:50 | 50.35682 | -1.72833 | 8681 ft | 274 kts | 15° |
| 2026-04-26 00:50 | 50.37508 | -1.72005 | 8404 ft | 272 kts | 15° |
| 2026-04-26 00:51 | 50.39324 | -1.71181 | 8113 ft | 271 kts | 15° |
| 2026-04-26 00:51 | 50.41131 | -1.70361 | 7831 ft | 269 kts | 15° |
| 2026-04-26 00:51 | 50.42909 | -1.69553 | 7698 ft | 262 kts | 15° |
| 2026-04-26 00:51 | 50.44637 | -1.68769 | 7566 ft | 255 kts | 15° |
| 2026-04-26 00:52 | 50.46315 | -1.68005 | 7459 ft | 248 kts | 16° |
| 2026-04-26 00:52 | 50.47962 | -1.67255 | 7352 ft | 247 kts | 15° |
| 2026-04-26 00:52 | 50.49600 | -1.66509 | 7267 ft | 241 kts | 16° |
| 2026-04-26 00:52 | 50.51146 | -1.65624 | 7250 ft | 232 kts | 23° |
| 2026-04-26 00:53 | 50.52606 | -1.64598 | 7247 ft | 228 kts | 24° |
| 2026-04-26 00:53 | 50.54054 | -1.63565 | 7254 ft | 230 kts | 24° |
| 2026-04-26 00:53 | 50.55524 | -1.62520 | 7263 ft | 234 kts | 24° |
| 2026-04-26 00:53 | 50.57018 | -1.61465 | 7260 ft | 236 kts | 24° |
| 2026-04-26 00:54 | 50.58514 | -1.60415 | 7249 ft | 235 kts | 24° |
| 2026-04-26 00:54 | 50.60002 | -1.59377 | 7232 ft | 232 kts | 24° |
| 2026-04-26 00:54 | 50.61450 | -1.58369 | 7170 ft | 220 kts | 24° |
| 2026-04-26 00:54 | 50.62801 | -1.57428 | 7026 ft | 206 kts | 23° |
| 2026-04-26 00:55 | 50.64106 | -1.56522 | 6655 ft | 204 kts | 24° |
| 2026-04-26 00:55 | 50.65386 | -1.55633 | 6268 ft | 203 kts | 24° |
| 2026-04-26 00:55 | 50.66734 | -1.55052 | 5854 ft | 203 kts | 355° |
| 2026-04-26 00:55 | 50.68037 | -1.55829 | 5458 ft | 202 kts | 332° |
| 2026-04-26 00:56 | 50.69287 | -1.56854 | 5062 ft | 203 kts | 334° |
| 2026-04-26 00:56 | 50.70547 | -1.57861 | 4684 ft | 202 kts | 334° |
| 2026-04-26 00:56 | 50.71797 | -1.58855 | 4321 ft | 201 kts | 334° |
| 2026-04-26 00:56 | 50.73037 | -1.59842 | 3961 ft | 199 kts | 335° |
| 2026-04-26 00:57 | 50.74275 | -1.60825 | 3584 ft | 199 kts | 335° |
| 2026-04-26 00:57 | 50.75503 | -1.61805 | 3239 ft | 197 kts | 335° |
| 2026-04-26 00:57 | 50.76711 | -1.62761 | 3030 ft | 188 kts | 335° |
| 2026-04-26 00:57 | 50.77838 | -1.63656 | 2905 ft | 177 kts | 335° |
| 2026-04-26 00:58 | 50.78932 | -1.64525 | 2650 ft | 176 kts | 335° |
| 2026-04-26 00:58 | 50.80007 | -1.65406 | 2363 ft | 172 kts | 327° |
| 2026-04-26 00:58 | 50.80689 | -1.66898 | 1941 ft | 173 kts | 278° |
| 2026-04-26 00:58 | 50.80582 | -1.68680 | 1741 ft | 159 kts | 255° |
| 2026-04-26 00:59 | 50.80319 | -1.70359 | 1644 ft | 158 kts | 254° |
| 2026-04-26 00:59 | 50.80050 | -1.71991 | 1453 ft | 147 kts | 254° |
| 2026-04-26 00:59 | 50.79794 | -1.73520 | 1237 ft | 140 kts | 253° |
| 2026-04-26 00:59 | 50.79534 | -1.75010 | 1066 ft | 143 kts | 252° |
| 2026-04-26 01:00 | 50.79289 | -1.76513 | 905 ft | 140 kts | 254° |
| 2026-04-26 01:00 | 50.79048 | -1.78000 | 702 ft | 140 kts | 255° |
| 2026-04-26 01:00 | 50.78804 | -1.79481 | 520 ft | 139 kts | 253° |
| 2026-04-26 01:00 | 50.78554 | -1.80942 | 309 ft | 137 kts | 255° |
| 2026-04-26 01:01 | 50.78316 | -1.82394 | 118 ft | 137 kts | 255° |
| 2026-04-26 01:01 | 50.78082 | -1.83802 | 40 ft | 115 kts | 256° |
| 2026-04-26 01:01 | 50.77957 | -1.84555 | 44 ft | 55 kts | 255° |
| 2026-04-26 01:01 | 50.77888 | -1.84969 | 48 ft | 20 kts | 255° |
| 2026-04-26 01:02 | 50.77844 | -1.85079 | 48 ft | 7 kts | 171° |
| 2026-04-26 01:02 | 50.77813 | -1.85009 | 47 ft | 9 kts | 119° |
| 2026-04-26 01:02 | 50.77773 | -1.84899 | 46 ft | 14 kts | 120° |
| 2026-04-26 01:02 | 50.77727 | -1.84741 | 46 ft | 17 kts | 106° |
| 2026-04-26 01:03 | 50.77704 | -1.84551 | 45 ft | 17 kts | 102° |
| 2026-04-26 01:03 | 50.77675 | -1.84371 | 45 ft | 17 kts | 108° |
| 2026-04-26 01:03 | 50.77638 | -1.84199 | 43 ft | 16 kts | 107° |
| 2026-04-26 01:03 | 50.77609 | -1.84030 | 43 ft | 16 kts | 103° |
| 2026-04-26 01:04 | 50.77587 | -1.83866 | 44 ft | 15 kts | 101° |
| 2026-04-26 01:04 | 50.77575 | -1.83697 | 44 ft | 15 kts | 92° |
| 2026-04-26 01:04 | 50.77583 | -1.83541 | 41 ft | 13 kts | 70° |
| 2026-04-26 01:04 | 50.77659 | -1.83478 | 43 ft | 13 kts | 4° |
| 2026-04-26 01:05 | 50.77741 | -1.83464 | 40 ft | 9 kts | 2° |
| 2026-04-26 01:05 | 50.77766 | -1.83415 | 43 ft | 7 kts | 83° |
| 2026-04-26 01:05 | 50.77766 | -1.83385 | 43 ft | 2 kts | 86° |
| 2026-04-26 01:05 | 50.77767 | -1.83375 | 43 ft | 0 kts | 86° |